sensor_id;sensor_type;location;lat;lon;timestamp;temperature;humidity
770;DHT22;368;48.698;9.116;2022-12-29T00:01:57;8.60;99.90
770;DHT22;368;48.698;9.116;2022-12-29T00:04:24;8.60;99.90
770;DHT22;368;48.698;9.116;2022-12-29T00:06:52;8.40;99.90
770;DHT22;368;48.698;9.116;2022-12-29T00:09:19;8.60;99.90
770;DHT22;368;48.698;9.116;2022-12-29T00:11:46;8.60;99.90
770;DHT22;368;48.698;9.116;2022-12-29T00:14:14;8.60;99.90
770;DHT22;368;48.698;9.116;2022-12-29T00:16:58;8.60;99.90
770;DHT22;368;48.698;9.116;2022-12-29T00:19:25;8.90;99.90
770;DHT22;368;48.698;9.116;2022-12-29T00:22:10;8.90;99.90
770;DHT22;368;48.698;9.116;2022-12-29T00:24:55;8.70;99.90
770;DHT22;368;48.698;9.116;2022-12-29T00:27:39;8.80;99.90
770;DHT22;368;48.698;9.116;2022-12-29T00:30:24;8.60;99.90
770;DHT22;368;48.698;9.116;2022-12-29T00:33:10;8.60;99.90
770;DHT22;368;48.698;9.116;2022-12-29T00:35:57;8.70;99.90
770;DHT22;368;48.698;9.116;2022-12-29T00:38:26;8.60;99.90
770;DHT22;368;48.698;9.116;2022-12-29T00:41:10;8.90;99.90
770;DHT22;368;48.698;9.116;2022-12-29T00:43:54;9.00;99.90
770;DHT22;368;48.698;9.116;2022-12-29T00:46:37;9.00;99.90
770;DHT22;368;48.698;9.116;2022-12-29T00:49:05;9.20;99.90
770;DHT22;368;48.698;9.116;2022-12-29T00:51:49;9.00;99.90
770;DHT22;368;48.698;9.116;2022-12-29T00:54:17;8.80;99.90
770;DHT22;368;48.698;9.116;2022-12-29T00:56:46;9.10;99.90
770;DHT22;368;48.698;9.116;2022-12-29T00:59:13;9.00;99.90
770;DHT22;368;48.698;9.116;2022-12-29T01:01:42;9.00;99.90
770;DHT22;368;48.698;9.116;2022-12-29T01:04:09;9.00;99.90
770;DHT22;368;48.698;9.116;2022-12-29T01:06:37;8.90;99.90
770;DHT22;368;48.698;9.116;2022-12-29T01:09:05;9.00;99.90
770;DHT22;368;48.698;9.116;2022-12-29T01:11:50;8.80;99.90
770;DHT22;368;48.698;9.116;2022-12-29T01:14:17;8.60;99.90
770;DHT22;368;48.698;9.116;2022-12-29T01:16:46;8.90;99.90
770;DHT22;368;48.698;9.116;2022-12-29T01:19:14;8.90;99.90
770;DHT22;368;48.698;9.116;2022-12-29T01:21:41;8.70;99.90
770;DHT22;368;48.698;9.116;2022-12-29T01:24:08;8.90;99.90
770;DHT22;368;48.698;9.116;2022-12-29T01:26:35;8.70;99.90
770;DHT22;368;48.698;9.116;2022-12-29T01:29:02;8.80;99.90
770;DHT22;368;48.698;9.116;2022-12-29T01:31:28;8.90;99.90
770;DHT22;368;48.698;9.116;2022-12-29T01:33:57;8.80;99.90
770;DHT22;368;48.698;9.116;2022-12-29T01:36:24;9.10;99.90
770;DHT22;368;48.698;9.116;2022-12-29T01:38:51;9.20;99.90
770;DHT22;368;48.698;9.116;2022-12-29T01:41:18;9.00;99.90
770;DHT22;368;48.698;9.116;2022-12-29T01:43:47;9.30;99.90
770;DHT22;368;48.698;9.116;2022-12-29T01:46:23;9.30;99.90
770;DHT22;368;48.698;9.116;2022-12-29T01:48:55;9.20;99.90
770;DHT22;368;48.698;9.116;2022-12-29T01:51:25;9.20;99.90
770;DHT22;368;48.698;9.116;2022-12-29T01:53:55;9.20;99.90
770;DHT22;368;48.698;9.116;2022-12-29T01:56:22;9.20;99.90
770;DHT22;368;48.698;9.116;2022-12-29T01:58:54;9.20;99.90
770;DHT22;368;48.698;9.116;2022-12-29T02:01:22;9.50;99.90
770;DHT22;368;48.698;9.116;2022-12-29T02:03:49;9.50;99.90
770;DHT22;368;48.698;9.116;2022-12-29T02:06:19;9.50;99.90
770;DHT22;368;48.698;9.116;2022-12-29T02:08:50;9.40;99.90
770;DHT22;368;48.698;9.116;2022-12-29T02:11:19;9.40;99.90
770;DHT22;368;48.698;9.116;2022-12-29T02:13:48;9.40;99.90
770;DHT22;368;48.698;9.116;2022-12-29T02:16:32;9.50;99.90
770;DHT22;368;48.698;9.116;2022-12-29T02:19:32;9.40;99.90
770;DHT22;368;48.698;9.116;2022-12-29T02:22:17;9.20;99.90
770;DHT22;368;48.698;9.116;2022-12-29T02:25:20;9.50;99.90
770;DHT22;368;48.698;9.116;2022-12-29T02:28:21;9.30;99.90
770;DHT22;368;48.698;9.116;2022-12-29T02:31:03;9.50;99.90
770;DHT22;368;48.698;9.116;2022-12-29T02:33:44;9.40;99.90
770;DHT22;368;48.698;9.116;2022-12-29T02:36:23;9.50;99.90
770;DHT22;368;48.698;9.116;2022-12-29T02:38:59;9.50;99.90
770;DHT22;368;48.698;9.116;2022-12-29T02:41:31;9.60;99.90
770;DHT22;368;48.698;9.116;2022-12-29T02:44:03;9.50;99.90
770;DHT22;368;48.698;9.116;2022-12-29T02:46:36;9.60;99.90
770;DHT22;368;48.698;9.116;2022-12-29T02:49:09;9.90;99.90
770;DHT22;368;48.698;9.116;2022-12-29T02:51:44;9.80;99.90
770;DHT22;368;48.698;9.116;2022-12-29T02:54:13;9.90;99.90
770;DHT22;368;48.698;9.116;2022-12-29T02:57:00;9.90;99.90
770;DHT22;368;48.698;9.116;2022-12-29T02:59:27;10.10;99.70
770;DHT22;368;48.698;9.116;2022-12-29T03:02:10;9.90;99.90
770;DHT22;368;48.698;9.116;2022-12-29T03:04:55;10.10;99.60
770;DHT22;368;48.698;9.116;2022-12-29T03:07:32;10.00;99.60
770;DHT22;368;48.698;9.116;2022-12-29T03:10:07;9.80;99.90
770;DHT22;368;48.698;9.116;2022-12-29T03:12:41;9.80;99.90
770;DHT22;368;48.698;9.116;2022-12-29T03:15:34;10.10;99.60
770;DHT22;368;48.698;9.116;2022-12-29T03:18:22;9.90;99.90
770;DHT22;368;48.698;9.116;2022-12-29T03:20:53;10.00;99.60
770;DHT22;368;48.698;9.116;2022-12-29T03:23:22;10.00;99.50
770;DHT22;368;48.698;9.116;2022-12-29T03:25:52;10.10;99.50
770;DHT22;368;48.698;9.116;2022-12-29T03:28:23;10.30;99.50
770;DHT22;368;48.698;9.116;2022-12-29T03:30:51;10.10;99.50
770;DHT22;368;48.698;9.116;2022-12-29T03:33:21;10.10;99.30
770;DHT22;368;48.698;9.116;2022-12-29T03:35:50;10.00;99.30
770;DHT22;368;48.698;9.116;2022-12-29T03:38:22;10.40;99.60
770;DHT22;368;48.698;9.116;2022-12-29T03:40:52;10.20;99.40
770;DHT22;368;48.698;9.116;2022-12-29T03:43:20;10.20;99.40
770;DHT22;368;48.698;9.116;2022-12-29T03:45:46;10.40;99.40
770;DHT22;368;48.698;9.116;2022-12-29T03:48:13;10.50;99.20
770;DHT22;368;48.698;9.116;2022-12-29T03:50:41;10.50;99.20
770;DHT22;368;48.698;9.116;2022-12-29T03:53:08;10.40;99.40
770;DHT22;368;48.698;9.116;2022-12-29T03:55:35;10.10;99.30
770;DHT22;368;48.698;9.116;2022-12-29T03:58:02;10.20;99.60
770;DHT22;368;48.698;9.116;2022-12-29T04:00:28;10.20;99.60
770;DHT22;368;48.698;9.116;2022-12-29T04:02:55;10.20;99.60
770;DHT22;368;48.698;9.116;2022-12-29T04:05:22;10.30;99.80
770;DHT22;368;48.698;9.116;2022-12-29T04:07:50;10.20;99.90
770;DHT22;368;48.698;9.116;2022-12-29T04:10:17;10.30;99.90
770;DHT22;368;48.698;9.116;2022-12-29T04:12:43;10.10;99.90
770;DHT22;368;48.698;9.116;2022-12-29T04:15:11;10.00;99.90
770;DHT22;368;48.698;9.116;2022-12-29T04:17:38;10.30;99.90
770;DHT22;368;48.698;9.116;2022-12-29T04:20:06;10.00;99.90
770;DHT22;368;48.698;9.116;2022-12-29T04:25:25;9.90;99.90
770;DHT22;368;48.698;9.116;2022-12-29T04:27:51;10.00;99.90
770;DHT22;368;48.698;9.116;2022-12-29T04:30:18;10.00;99.90
770;DHT22;368;48.698;9.116;2022-12-29T04:32:45;10.00;99.90
770;DHT22;368;48.698;9.116;2022-12-29T04:35:12;9.90;99.90
770;DHT22;368;48.698;9.116;2022-12-29T04:37:38;9.80;99.90
770;DHT22;368;48.698;9.116;2022-12-29T04:40:08;10.00;99.90
770;DHT22;368;48.698;9.116;2022-12-29T04:42:35;10.10;99.90
770;DHT22;368;48.698;9.116;2022-12-29T04:45:02;9.80;99.90
770;DHT22;368;48.698;9.116;2022-12-29T04:47:29;10.00;99.90
770;DHT22;368;48.698;9.116;2022-12-29T04:49:55;9.90;99.90
770;DHT22;368;48.698;9.116;2022-12-29T04:52:22;10.00;99.90
770;DHT22;368;48.698;9.116;2022-12-29T04:54:49;10.00;99.90
770;DHT22;368;48.698;9.116;2022-12-29T04:57:17;10.00;99.90
770;DHT22;368;48.698;9.116;2022-12-29T04:59:44;10.40;99.90
770;DHT22;368;48.698;9.116;2022-12-29T05:02:11;10.20;99.90
770;DHT22;368;48.698;9.116;2022-12-29T05:04:37;9.90;99.90
770;DHT22;368;48.698;9.116;2022-12-29T05:07:04;10.20;99.90
770;DHT22;368;48.698;9.116;2022-12-29T05:09:31;10.20;99.90
770;DHT22;368;48.698;9.116;2022-12-29T05:11:58;10.30;99.90
770;DHT22;368;48.698;9.116;2022-12-29T05:14:26;10.30;99.90
770;DHT22;368;48.698;9.116;2022-12-29T05:16:53;10.20;99.90
770;DHT22;368;48.698;9.116;2022-12-29T05:19:20;10.40;99.90
770;DHT22;368;48.698;9.116;2022-12-29T05:21:46;10.20;99.90
770;DHT22;368;48.698;9.116;2022-12-29T05:24:13;10.10;99.90
770;DHT22;368;48.698;9.116;2022-12-29T05:26:40;10.10;99.90
770;DHT22;368;48.698;9.116;2022-12-29T05:29:07;9.90;99.90
770;DHT22;368;48.698;9.116;2022-12-29T05:31:35;10.00;99.90
770;DHT22;368;48.698;9.116;2022-12-29T05:34:02;10.00;99.90
770;DHT22;368;48.698;9.116;2022-12-29T05:36:29;9.80;99.90
770;DHT22;368;48.698;9.116;2022-12-29T05:38:56;10.00;99.90
770;DHT22;368;48.698;9.116;2022-12-29T05:41:23;10.20;99.90
770;DHT22;368;48.698;9.116;2022-12-29T05:43:50;10.30;99.90
770;DHT22;368;48.698;9.116;2022-12-29T05:46:17;10.10;99.90
770;DHT22;368;48.698;9.116;2022-12-29T05:48:45;10.30;99.90
770;DHT22;368;48.698;9.116;2022-12-29T05:51:12;10.50;99.90
770;DHT22;368;48.698;9.116;2022-12-29T05:53:38;10.20;99.90
770;DHT22;368;48.698;9.116;2022-12-29T05:56:06;10.30;99.90
770;DHT22;368;48.698;9.116;2022-12-29T05:58:33;10.30;99.90
770;DHT22;368;48.698;9.116;2022-12-29T06:00:59;10.50;99.90
770;DHT22;368;48.698;9.116;2022-12-29T06:03:26;10.30;99.90
770;DHT22;368;48.698;9.116;2022-12-29T06:05:54;10.60;99.90
770;DHT22;368;48.698;9.116;2022-12-29T06:08:22;10.60;99.90
770;DHT22;368;48.698;9.116;2022-12-29T06:10:49;10.40;99.90
770;DHT22;368;48.698;9.116;2022-12-29T06:13:16;10.50;99.90
770;DHT22;368;48.698;9.116;2022-12-29T06:15:43;10.30;99.90
770;DHT22;368;48.698;9.116;2022-12-29T06:18:10;10.40;99.90
770;DHT22;368;48.698;9.116;2022-12-29T06:20:37;10.70;99.90
770;DHT22;368;48.698;9.116;2022-12-29T06:23:05;10.40;99.90
770;DHT22;368;48.698;9.116;2022-12-29T06:25:32;10.50;99.90
770;DHT22;368;48.698;9.116;2022-12-29T06:27:59;10.20;99.90
770;DHT22;368;48.698;9.116;2022-12-29T06:30:26;10.50;99.90
770;DHT22;368;48.698;9.116;2022-12-29T06:32:52;10.30;99.90
770;DHT22;368;48.698;9.116;2022-12-29T06:35:20;10.40;99.90
770;DHT22;368;48.698;9.116;2022-12-29T06:37:48;10.40;99.90
770;DHT22;368;48.698;9.116;2022-12-29T06:40:16;10.50;99.90
770;DHT22;368;48.698;9.116;2022-12-29T06:42:43;10.20;99.90
770;DHT22;368;48.698;9.116;2022-12-29T06:45:10;10.50;99.90
770;DHT22;368;48.698;9.116;2022-12-29T06:47:37;10.40;99.90
770;DHT22;368;48.698;9.116;2022-12-29T06:50:04;10.40;99.90
770;DHT22;368;48.698;9.116;2022-12-29T06:52:31;10.30;99.90
770;DHT22;368;48.698;9.116;2022-12-29T06:54:58;10.20;99.90
770;DHT22;368;48.698;9.116;2022-12-29T06:57:26;10.20;99.90
770;DHT22;368;48.698;9.116;2022-12-29T06:59:53;10.20;99.90
770;DHT22;368;48.698;9.116;2022-12-29T07:02:21;9.90;99.90
770;DHT22;368;48.698;9.116;2022-12-29T07:04:47;10.20;99.90
770;DHT22;368;48.698;9.116;2022-12-29T07:07:14;9.90;99.90
770;DHT22;368;48.698;9.116;2022-12-29T07:09:41;10.10;99.90
770;DHT22;368;48.698;9.116;2022-12-29T07:12:08;10.10;99.90
770;DHT22;368;48.698;9.116;2022-12-29T07:14:36;10.00;99.90
770;DHT22;368;48.698;9.116;2022-12-29T07:17:03;10.30;99.90
770;DHT22;368;48.698;9.116;2022-12-29T07:19:31;10.10;99.90
770;DHT22;368;48.698;9.116;2022-12-29T07:21:58;10.00;99.90
770;DHT22;368;48.698;9.116;2022-12-29T07:24:25;9.80;99.90
770;DHT22;368;48.698;9.116;2022-12-29T07:26:52;9.80;99.90
770;DHT22;368;48.698;9.116;2022-12-29T07:29:19;10.20;99.90
770;DHT22;368;48.698;9.116;2022-12-29T07:31:47;9.90;99.90
770;DHT22;368;48.698;9.116;2022-12-29T07:34:13;10.00;99.90
770;DHT22;368;48.698;9.116;2022-12-29T07:36:40;10.00;99.90
770;DHT22;368;48.698;9.116;2022-12-29T07:39:07;10.20;99.90
770;DHT22;368;48.698;9.116;2022-12-29T07:41:34;10.20;99.90
770;DHT22;368;48.698;9.116;2022-12-29T07:44:01;10.30;99.90
770;DHT22;368;48.698;9.116;2022-12-29T07:46:27;10.10;99.90
770;DHT22;368;48.698;9.116;2022-12-29T07:48:55;10.00;99.90
770;DHT22;368;48.698;9.116;2022-12-29T07:51:22;10.20;99.90
770;DHT22;368;48.698;9.116;2022-12-29T07:53:49;10.00;99.90
770;DHT22;368;48.698;9.116;2022-12-29T07:56:16;9.90;99.90
770;DHT22;368;48.698;9.116;2022-12-29T07:58:42;10.10;99.90
770;DHT22;368;48.698;9.116;2022-12-29T08:01:09;10.30;99.90
770;DHT22;368;48.698;9.116;2022-12-29T08:03:36;10.40;99.90
770;DHT22;368;48.698;9.116;2022-12-29T08:06:05;10.50;99.90
770;DHT22;368;48.698;9.116;2022-12-29T08:08:31;10.50;99.90
770;DHT22;368;48.698;9.116;2022-12-29T08:10:58;10.50;99.90
770;DHT22;368;48.698;9.116;2022-12-29T08:13:25;10.30;99.90
770;DHT22;368;48.698;9.116;2022-12-29T08:15:52;10.30;99.90
770;DHT22;368;48.698;9.116;2022-12-29T08:18:19;10.70;99.90
770;DHT22;368;48.698;9.116;2022-12-29T08:20:46;10.60;99.90
770;DHT22;368;48.698;9.116;2022-12-29T08:23:14;10.60;99.90
770;DHT22;368;48.698;9.116;2022-12-29T08:25:40;10.80;99.90
770;DHT22;368;48.698;9.116;2022-12-29T08:28:07;10.70;99.90
770;DHT22;368;48.698;9.116;2022-12-29T08:30:35;10.80;99.90
770;DHT22;368;48.698;9.116;2022-12-29T08:33:02;10.70;99.90
770;DHT22;368;48.698;9.116;2022-12-29T08:35:29;10.70;99.90
770;DHT22;368;48.698;9.116;2022-12-29T08:37:56;10.80;99.90
770;DHT22;368;48.698;9.116;2022-12-29T08:40:24;10.90;99.90
770;DHT22;368;48.698;9.116;2022-12-29T08:42:51;10.80;99.90
770;DHT22;368;48.698;9.116;2022-12-29T08:45:18;11.00;99.90
770;DHT22;368;48.698;9.116;2022-12-29T08:47:44;10.70;99.70
770;DHT22;368;48.698;9.116;2022-12-29T08:50:11;10.90;99.90
770;DHT22;368;48.698;9.116;2022-12-29T08:52:38;10.90;99.90
770;DHT22;368;48.698;9.116;2022-12-29T08:55:05;10.70;99.60
770;DHT22;368;48.698;9.116;2022-12-29T08:57:33;10.90;99.70
770;DHT22;368;48.698;9.116;2022-12-29T09:00:00;10.90;99.60
770;DHT22;368;48.698;9.116;2022-12-29T09:02:28;10.80;99.70
770;DHT22;368;48.698;9.116;2022-12-29T09:04:54;10.90;99.90
770;DHT22;368;48.698;9.116;2022-12-29T09:07:22;10.70;99.90
770;DHT22;368;48.698;9.116;2022-12-29T09:09:49;11.00;99.90
770;DHT22;368;48.698;9.116;2022-12-29T09:12:17;10.70;99.80
770;DHT22;368;48.698;9.116;2022-12-29T09:14:46;10.70;99.70
770;DHT22;368;48.698;9.116;2022-12-29T09:17:13;10.70;99.80
770;DHT22;368;48.698;9.116;2022-12-29T09:19:57;11.00;99.90
770;DHT22;368;48.698;9.116;2022-12-29T09:22:23;10.80;99.30
770;DHT22;368;48.698;9.116;2022-12-29T09:24:50;10.90;99.60
770;DHT22;368;48.698;9.116;2022-12-29T09:27:17;11.00;99.80
770;DHT22;368;48.698;9.116;2022-12-29T09:29:45;11.10;99.80
770;DHT22;368;48.698;9.116;2022-12-29T09:32:12;11.10;99.50
770;DHT22;368;48.698;9.116;2022-12-29T09:34:39;11.40;99.40
770;DHT22;368;48.698;9.116;2022-12-29T09:37:06;11.20;99.10
770;DHT22;368;48.698;9.116;2022-12-29T09:39:32;11.40;99.40
770;DHT22;368;48.698;9.116;2022-12-29T09:42:03;11.40;99.20
770;DHT22;368;48.698;9.116;2022-12-29T09:44:47;11.40;99.00
770;DHT22;368;48.698;9.116;2022-12-29T09:47:17;11.50;99.10
770;DHT22;368;48.698;9.116;2022-12-29T09:49:48;11.40;99.00
770;DHT22;368;48.698;9.116;2022-12-29T09:52:19;11.80;99.00
770;DHT22;368;48.698;9.116;2022-12-29T09:54:52;11.50;98.80
770;DHT22;368;48.698;9.116;2022-12-29T09:57:23;11.70;98.80
770;DHT22;368;48.698;9.116;2022-12-29T09:59:55;11.80;98.90
770;DHT22;368;48.698;9.116;2022-12-29T10:02:31;11.80;98.70
770;DHT22;368;48.698;9.116;2022-12-29T10:04:59;11.90;98.70
770;DHT22;368;48.698;9.116;2022-12-29T10:07:38;11.70;98.60
770;DHT22;368;48.698;9.116;2022-12-29T10:10:22;11.70;98.90
770;DHT22;368;48.698;9.116;2022-12-29T10:13:13;11.70;99.10
770;DHT22;368;48.698;9.116;2022-12-29T10:15:53;11.60;99.10
770;DHT22;368;48.698;9.116;2022-12-29T10:18:38;11.50;99.50
770;DHT22;368;48.698;9.116;2022-12-29T10:21:11;11.70;99.60
770;DHT22;368;48.698;9.116;2022-12-29T10:23:42;11.60;99.60
770;DHT22;368;48.698;9.116;2022-12-29T10:26:14;11.50;99.70
770;DHT22;368;48.698;9.116;2022-12-29T10:28:44;11.90;99.50
770;DHT22;368;48.698;9.116;2022-12-29T10:31:18;11.80;99.50
770;DHT22;368;48.698;9.116;2022-12-29T10:33:49;12.00;99.50
770;DHT22;368;48.698;9.116;2022-12-29T10:36:27;12.10;99.50
770;DHT22;368;48.698;9.116;2022-12-29T10:39:04;12.10;99.40
770;DHT22;368;48.698;9.116;2022-12-29T10:41:37;12.00;99.60
770;DHT22;368;48.698;9.116;2022-12-29T10:44:07;12.20;99.40
770;DHT22;368;48.698;9.116;2022-12-29T10:46:37;12.30;99.40
770;DHT22;368;48.698;9.116;2022-12-29T10:49:04;12.30;99.00
770;DHT22;368;48.698;9.116;2022-12-29T10:51:35;12.50;99.00
770;DHT22;368;48.698;9.116;2022-12-29T10:54:09;12.20;99.00
770;DHT22;368;48.698;9.116;2022-12-29T10:56:40;12.30;99.20
770;DHT22;368;48.698;9.116;2022-12-29T10:59:15;12.20;99.40
770;DHT22;368;48.698;9.116;2022-12-29T11:01:53;12.10;99.20
770;DHT22;368;48.698;9.116;2022-12-29T11:04:36;12.20;99.40
770;DHT22;368;48.698;9.116;2022-12-29T11:07:07;11.90;99.10
770;DHT22;368;48.698;9.116;2022-12-29T11:09:36;12.10;99.30
770;DHT22;368;48.698;9.116;2022-12-29T11:12:19;12.00;99.20
770;DHT22;368;48.698;9.116;2022-12-29T11:14:46;12.00;99.00
770;DHT22;368;48.698;9.116;2022-12-29T11:17:16;12.10;99.20
770;DHT22;368;48.698;9.116;2022-12-29T11:19:43;12.20;99.00
770;DHT22;368;48.698;9.116;2022-12-29T11:22:18;12.50;98.90
770;DHT22;368;48.698;9.116;2022-12-29T11:24:47;12.40;98.70
770;DHT22;368;48.698;9.116;2022-12-29T11:27:17;12.20;98.90
770;DHT22;368;48.698;9.116;2022-12-29T11:29:45;12.30;99.30
770;DHT22;368;48.698;9.116;2022-12-29T11:32:16;12.00;99.80
770;DHT22;368;48.698;9.116;2022-12-29T11:34:45;11.90;99.90
770;DHT22;368;48.698;9.116;2022-12-29T11:37:14;11.90;99.90
770;DHT22;368;48.698;9.116;2022-12-29T11:39:49;11.80;99.90
770;DHT22;368;48.698;9.116;2022-12-29T11:42:19;12.10;99.90
770;DHT22;368;48.698;9.116;2022-12-29T11:44:48;12.20;99.90
770;DHT22;368;48.698;9.116;2022-12-29T11:47:25;12.60;99.90
770;DHT22;368;48.698;9.116;2022-12-29T11:49:57;12.30;99.60
770;DHT22;368;48.698;9.116;2022-12-29T11:52:27;12.40;99.80
770;DHT22;368;48.698;9.116;2022-12-29T11:54:55;12.20;99.90
770;DHT22;368;48.698;9.116;2022-12-29T11:57:24;12.20;99.90
770;DHT22;368;48.698;9.116;2022-12-29T11:59:52;12.10;99.90
770;DHT22;368;48.698;9.116;2022-12-29T12:02:35;12.10;99.90
770;DHT22;368;48.698;9.116;2022-12-29T12:05:20;11.90;99.90
770;DHT22;368;48.698;9.116;2022-12-29T12:07:50;12.00;99.90
770;DHT22;368;48.698;9.116;2022-12-29T12:10:23;11.60;99.90
770;DHT22;368;48.698;9.116;2022-12-29T12:12:58;11.70;99.90
770;DHT22;368;48.698;9.116;2022-12-29T12:15:31;11.80;99.90
770;DHT22;368;48.698;9.116;2022-12-29T12:18:08;11.70;99.90
770;DHT22;368;48.698;9.116;2022-12-29T12:20:44;11.50;99.90
770;DHT22;368;48.698;9.116;2022-12-29T12:23:24;11.90;99.90
770;DHT22;368;48.698;9.116;2022-12-29T12:25:57;11.70;99.90
770;DHT22;368;48.698;9.116;2022-12-29T12:28:33;11.80;99.90
770;DHT22;368;48.698;9.116;2022-12-29T12:31:08;11.60;99.90
770;DHT22;368;48.698;9.116;2022-12-29T12:33:42;11.30;99.90
770;DHT22;368;48.698;9.116;2022-12-29T12:36:30;11.20;99.90
770;DHT22;368;48.698;9.116;2022-12-29T12:39:02;11.10;99.90
770;DHT22;368;48.698;9.116;2022-12-29T12:41:46;10.80;99.90
770;DHT22;368;48.698;9.116;2022-12-29T12:44:20;10.30;99.90
770;DHT22;368;48.698;9.116;2022-12-29T12:47:07;10.30;99.90
770;DHT22;368;48.698;9.116;2022-12-29T12:52:50;10.90;99.90
770;DHT22;368;48.698;9.116;2022-12-29T12:55:35;11.00;99.90
770;DHT22;368;48.698;9.116;2022-12-29T12:58:11;11.60;99.90
770;DHT22;368;48.698;9.116;2022-12-29T13:00:47;11.80;99.90
770;DHT22;368;48.698;9.116;2022-12-29T13:03:26;11.70;99.90
770;DHT22;368;48.698;9.116;2022-12-29T13:06:12;12.90;99.90
770;DHT22;368;48.698;9.116;2022-12-29T13:11:46;14.50;99.90
770;DHT22;368;48.698;9.116;2022-12-29T13:14:23;13.90;99.90
770;DHT22;368;48.698;9.116;2022-12-29T13:16:56;13.00;99.90
770;DHT22;368;48.698;9.116;2022-12-29T13:19:29;13.00;99.90
770;DHT22;368;48.698;9.116;2022-12-29T13:22:06;13.90;99.90
770;DHT22;368;48.698;9.116;2022-12-29T13:24:47;14.00;99.90
770;DHT22;368;48.698;9.116;2022-12-29T13:27:22;13.80;99.90
770;DHT22;368;48.698;9.116;2022-12-29T13:29:56;13.00;99.90
770;DHT22;368;48.698;9.116;2022-12-29T13:32:34;12.10;99.90
770;DHT22;368;48.698;9.116;2022-12-29T13:35:11;11.80;99.90
770;DHT22;368;48.698;9.116;2022-12-29T13:37:47;11.40;99.90
770;DHT22;368;48.698;9.116;2022-12-29T13:40:18;11.50;99.90
770;DHT22;368;48.698;9.116;2022-12-29T13:42:46;11.30;99.90
770;DHT22;368;48.698;9.116;2022-12-29T13:45:17;11.10;99.90
770;DHT22;368;48.698;9.116;2022-12-29T13:47:47;11.60;99.90
770;DHT22;368;48.698;9.116;2022-12-29T13:50:17;11.40;99.90
770;DHT22;368;48.698;9.116;2022-12-29T13:52:51;11.20;99.90
770;DHT22;368;48.698;9.116;2022-12-29T13:55:27;11.30;99.90
770;DHT22;368;48.698;9.116;2022-12-29T13:58:03;11.50;99.90
770;DHT22;368;48.698;9.116;2022-12-29T14:00:36;11.70;99.90
770;DHT22;368;48.698;9.116;2022-12-29T14:03:20;11.60;99.90
770;DHT22;368;48.698;9.116;2022-12-29T14:06:05;11.70;99.90
770;DHT22;368;48.698;9.116;2022-12-29T14:08:37;13.60;99.90
770;DHT22;368;48.698;9.116;2022-12-29T14:11:08;14.40;99.90
770;DHT22;368;48.698;9.116;2022-12-29T14:13:38;13.60;99.90
770;DHT22;368;48.698;9.116;2022-12-29T14:16:07;13.10;99.90
770;DHT22;368;48.698;9.116;2022-12-29T14:18:42;12.50;99.90
770;DHT22;368;48.698;9.116;2022-12-29T14:21:18;12.30;99.90
770;DHT22;368;48.698;9.116;2022-12-29T14:23:48;12.10;99.90
770;DHT22;368;48.698;9.116;2022-12-29T14:26:33;11.90;99.90
770;DHT22;368;48.698;9.116;2022-12-29T14:29:22;11.80;99.90
770;DHT22;368;48.698;9.116;2022-12-29T14:32:36;11.90;99.90
770;DHT22;368;48.698;9.116;2022-12-29T14:35:39;12.20;99.90
770;DHT22;368;48.698;9.116;2022-12-29T14:38:12;12.10;99.90
770;DHT22;368;48.698;9.116;2022-12-29T14:40:41;12.00;99.90
770;DHT22;368;48.698;9.116;2022-12-29T14:43:19;11.90;99.90
770;DHT22;368;48.698;9.116;2022-12-29T14:45:54;11.60;99.90
770;DHT22;368;48.698;9.116;2022-12-29T14:51:24;11.50;99.90
770;DHT22;368;48.698;9.116;2022-12-29T14:53:53;11.60;99.90
770;DHT22;368;48.698;9.116;2022-12-29T14:56:25;11.20;99.90
770;DHT22;368;48.698;9.116;2022-12-29T14:58:54;11.40;99.90
770;DHT22;368;48.698;9.116;2022-12-29T15:01:26;11.00;99.90
770;DHT22;368;48.698;9.116;2022-12-29T15:03:56;11.00;99.90
770;DHT22;368;48.698;9.116;2022-12-29T15:06:25;11.20;99.90
770;DHT22;368;48.698;9.116;2022-12-29T15:08:59;11.20;99.90
770;DHT22;368;48.698;9.116;2022-12-29T15:11:41;11.00;99.90
770;DHT22;368;48.698;9.116;2022-12-29T15:14:28;11.00;99.90
770;DHT22;368;48.698;9.116;2022-12-29T15:16:55;10.90;99.90
770;DHT22;368;48.698;9.116;2022-12-29T15:19:23;10.80;99.90
770;DHT22;368;48.698;9.116;2022-12-29T15:21:50;10.80;99.90
770;DHT22;368;48.698;9.116;2022-12-29T15:24:17;10.70;99.90
770;DHT22;368;48.698;9.116;2022-12-29T15:26:46;10.90;99.90
770;DHT22;368;48.698;9.116;2022-12-29T15:32:17;10.90;99.90
770;DHT22;368;48.698;9.116;2022-12-29T15:34:46;10.80;99.90
770;DHT22;368;48.698;9.116;2022-12-29T15:37:18;11.00;99.90
770;DHT22;368;48.698;9.116;2022-12-29T15:39:46;10.90;99.90
770;DHT22;368;48.698;9.116;2022-12-29T15:42:27;10.60;99.90
770;DHT22;368;48.698;9.116;2022-12-29T15:44:57;10.80;99.90
770;DHT22;368;48.698;9.116;2022-12-29T15:47:27;11.00;99.90
770;DHT22;368;48.698;9.116;2022-12-29T15:50:02;10.70;99.90
770;DHT22;368;48.698;9.116;2022-12-29T15:52:31;10.70;99.90
770;DHT22;368;48.698;9.116;2022-12-29T15:54:58;10.50;99.90
770;DHT22;368;48.698;9.116;2022-12-29T15:57:27;10.70;99.90
770;DHT22;368;48.698;9.116;2022-12-29T15:59:55;10.70;99.90
770;DHT22;368;48.698;9.116;2022-12-29T16:02:22;11.00;99.90
770;DHT22;368;48.698;9.116;2022-12-29T16:04:51;10.70;99.90
770;DHT22;368;48.698;9.116;2022-12-29T16:07:27;10.80;99.90
770;DHT22;368;48.698;9.116;2022-12-29T16:09:55;10.60;99.90
770;DHT22;368;48.698;9.116;2022-12-29T16:12:24;10.70;99.90
770;DHT22;368;48.698;9.116;2022-12-29T16:14:54;10.60;99.90
770;DHT22;368;48.698;9.116;2022-12-29T16:17:23;10.80;99.90
770;DHT22;368;48.698;9.116;2022-12-29T16:19:56;10.80;99.90
770;DHT22;368;48.698;9.116;2022-12-29T16:22:28;10.70;99.90
770;DHT22;368;48.698;9.116;2022-12-29T16:24:58;10.70;99.90
770;DHT22;368;48.698;9.116;2022-12-29T16:27:31;10.40;99.90
770;DHT22;368;48.698;9.116;2022-12-29T16:30:03;10.20;99.90
770;DHT22;368;48.698;9.116;2022-12-29T16:32:31;10.10;99.90
770;DHT22;368;48.698;9.116;2022-12-29T16:35:19;10.10;99.90
770;DHT22;368;48.698;9.116;2022-12-29T16:37:47;9.90;99.90
770;DHT22;368;48.698;9.116;2022-12-29T16:40:28;9.90;99.90
770;DHT22;368;48.698;9.116;2022-12-29T16:42:57;10.00;99.90
770;DHT22;368;48.698;9.116;2022-12-29T16:48:34;9.50;99.90
770;DHT22;368;48.698;9.116;2022-12-29T16:51:04;9.50;99.90
770;DHT22;368;48.698;9.116;2022-12-29T16:53:36;9.40;99.90
770;DHT22;368;48.698;9.116;2022-12-29T16:56:08;9.40;99.90
770;DHT22;368;48.698;9.116;2022-12-29T16:58:39;9.00;99.90
770;DHT22;368;48.698;9.116;2022-12-29T17:01:07;9.40;99.90
770;DHT22;368;48.698;9.116;2022-12-29T17:03:41;9.10;99.90
770;DHT22;368;48.698;9.116;2022-12-29T17:06:14;9.30;99.90
770;DHT22;368;48.698;9.116;2022-12-29T17:08:42;9.10;99.90
770;DHT22;368;48.698;9.116;2022-12-29T17:11:21;9.10;99.90
770;DHT22;368;48.698;9.116;2022-12-29T17:14:23;8.70;99.90
770;DHT22;368;48.698;9.116;2022-12-29T17:16:52;8.80;99.90
770;DHT22;368;48.698;9.116;2022-12-29T17:19:25;8.50;99.90
770;DHT22;368;48.698;9.116;2022-12-29T17:21:54;8.60;99.90
770;DHT22;368;48.698;9.116;2022-12-29T17:24:21;8.70;99.90
770;DHT22;368;48.698;9.116;2022-12-29T17:26:49;8.50;99.90